Bookmark and Share
Track history (hours):
 

Prevelis

Last reported at 2014-Apr-23 15:29 UTC. Time now 2014-Apr-24 04:29 UTC.
Position N 36°10' E 027°36'.

Length 143 m; draft 5.5 m.

Type: Passenger vessel. MMSI: 239297000.

NotesDate/timePositionNaut miles runAvg speedWind from/ knotsBaromVisibWave heightAir tempDewpointWater temp
2014-Apr-23 15:29N 36°10' E 027°36'1717.9
2014-Apr-23 14:33N 35°57' E 027°23'1812.1
2014-Apr-23 13:03N 35°40' E 027°15'14 9.6
2014-Apr-23 11:33N 35°26' E 027°13'1313.3
2014-Apr-23 10:33N 35°26' E 026°57'1110.6
2014-Apr-23 09:33N 35°33' E 026°48'1916.9
2014-Apr-23 08:27N 35°45' E 026°30'1516.7
2014-Apr-23 07:33N 35°56' E 026°16'1717.1
2014-Apr-23 06:33N 36°07' E 026°01'1616.5
2014-Apr-23 05:33N 36°18' E 025°47'1211.6
2014-Apr-23 04:33N 36°19' E 025°32'7 6.5
2014-Apr-23 03:33N 36°23' E 025°26'8 8.3
2014-Apr-23 02:34N 36°24' E 025°16'1716.9
2014-Apr-23 01:33N 36°33' E 024°58'1717.0
2014-Apr-23 00:33N 36°42' E 024°39'10 8.7
2014-Apr-22 23:23N 36°43' E 024°27'1112.3
2014-Apr-22 22:29N 36°52' E 024°19'1817.2
2014-Apr-22 21:27N 37°08' E 024°07'3317.0
2014-Apr-22 19:29N 37°36' E 023°46'1617.0
2014-Apr-22 18:34N 37°50' E 023°37'7 6.5
2014-Apr-22 17:33N 37°57' E 023°38'0 0.0
2014-Apr-22 16:33N 37°57' E 023°38'0 0.0
2014-Apr-22 15:33N 37°57' E 023°38'0 0.0
2014-Apr-22 14:34N 37°57' E 023°38'0 0.0
2014-Apr-22 13:34N 37°57' E 023°38'0 0.0
2014-Apr-22 12:34N 37°57' E 023°38'0 0.0
2014-Apr-22 11:34N 37°57' E 023°38'0 0.0
2014-Apr-22 10:34N 37°57' E 023°38'0 0.0
2014-Apr-22 09:34N 37°57' E 023°38'0 0.0
2014-Apr-22 08:34N 37°57' E 023°38'0 0.3
2014-Apr-22 07:34N 37°57' E 023°38'1414.2
2014-Apr-22 06:33N 37°43' E 023°44'8914.1
2014-Apr-22 00:16N 36°35' E 024°55'1317.5
2014-Apr-21 23:31N 36°31' E 025°11'1515.0
2014-Apr-21 22:33N 36°23' E 025°26'0 0.0
2014-Apr-21 21:32N 36°23' E 025°26'4 4.5
2014-Apr-21 20:34N 36°20' E 025°23'1716.7
2014-Apr-21 19:33N 36°20' E 025°44'8 8.2
2014-Apr-21 18:33N 36°12' E 025°40'1817.8
2014-Apr-21 17:33N 35°56' E 025°33'1817.7
2014-Apr-21 16:33N 35°40' E 025°24'2310.0
2014-Apr-21 14:17N 35°21' E 025°09'1013.9
2014-Apr-21 13:33N 35°22' E 025°21'4213.5
2014-Apr-21 10:28N 35°15' E 026°11'1616.8
2014-Apr-21 09:30N 35°21' E 026°30'1617.2
2014-Apr-21 08:33N 35°24' E 026°50'9 8.7
2014-Apr-21 07:33N 35°27' E 026°60'14 6.8
2014-Apr-21 05:33N 35°34' E 027°14'1612.0
2014-Apr-21 04:14N 35°50' E 027°16'  
2014-Apr-18 08:05N 35°44' E 025°24'916.4
2014-Apr-18 07:33N 35°52' E 025°28'1615.9
2014-Apr-18 06:33N 36°06' E 025°37'1615.5
2014-Apr-18 05:33N 36°20' E 025°45'1 0.7
2014-Apr-18 04:32N 36°21' E 025°46'1717.2
2014-Apr-18 03:33N 36°19' E 025°25'5 4.6
2014-Apr-18 02:33N 36°23' E 025°26'0 0.0
2014-Apr-18 01:33N 36°23' E 025°26'3 2.9
2014-Apr-18 00:33N 36°23' E 025°22'1616.6
2014-Apr-17 23:34N 36°27' E 025°02'1616.0
2014-Apr-17 22:33N 36°37' E 024°47'1816.5
2014-Apr-17 21:28N 36°47' E 024°29'4 4.5
2014-Apr-17 20:33N 36°43' E 024°27'1312.4
2014-Apr-17 19:32N 36°53' E 024°17'5116.6
2014-Apr-17 16:29N 37°37' E 023°44'1516.1
2014-Apr-17 15:33N 37°51' E 023°37'6 6.3
2014-Apr-17 14:34N 37°57' E 023°38'0 0.0
2014-Apr-17 13:34N 37°57' E 023°38'0 0.0
2014-Apr-17 12:33N 37°57' E 023°38'0 0.0
2014-Apr-17 11:34N 37°57' E 023°38'0 0.0
2014-Apr-17 10:34N 37°57' E 023°38'0 0.0
2014-Apr-17 09:33N 37°57' E 023°38'0 0.0
2014-Apr-17 08:34N 37°57' E 023°38'0 0.0
2014-Apr-17 07:34N 37°57' E 023°38'0 0.0
2014-Apr-17 06:34N 37°57' E 023°38'0 0.0
2014-Apr-17 05:33N 37°57' E 023°38'0 0.0
2014-Apr-17 04:34N 37°57' E 023°38'0 0.0
2014-Apr-17 03:34N 37°57' E 023°38'2 1.9
2014-Apr-17 02:33N 37°55' E 023°37'1413.8
2014-Apr-17 01:33N 37°43' E 023°45'5217.0
2014-Apr-16 22:30N 36°57' E 024°14'1616.5
2014-Apr-16 21:31N 36°43' E 024°26'7 6.0
2014-Apr-16 20:26N 36°45' E 024°33'1516.8
2014-Apr-16 19:33N 36°37' E 024°49'1917.3
2014-Apr-16 18:26N 36°27' E 025°09'1315.1
2014-Apr-16 17:33N 36°23' E 025°25'4 3.8
2014-Apr-16 16:33N 36°22' E 025°21'1515.0
2014-Apr-16 15:33N 36°20' E 025°39'7 6.6
2014-Apr-16 14:33N 36°17' E 025°47'1717.0
2014-Apr-16 13:33N 36°05' E 026°01'68 3.0
2014-Apr-15 15:19N 35°58' E 027°25'22 8.1
2014-Apr-15 12:33N 35°37' E 027°14'7711.0
2014-Apr-15 05:34N 36°14' E 025°51'2613.0
2014-Apr-15 03:34N 36°21' E 025°20'5 4.5
2014-Apr-15 02:33N 36°23' E 025°26'1111.6
2014-Apr-15 01:34N 36°26' E 025°12'1717.1
2014-Apr-15 00:34N 36°35' E 024°54'1717.0
2014-Apr-14 23:33N 36°44' E 024°36'7 7.3
2014-Apr-14 22:34N 36°43' E 024°27'1211.0
2014-Apr-14 21:30N 36°53' E 024°18'5116.9
2014-Apr-14 18:31N 37°36' E 023°46'1616.5
2014-Apr-14 17:33N 37°50' E 023°37'7 6.5
2014-Apr-14 16:33N 37°57' E 023°38'0 0.0
2014-Apr-14 15:34N 37°57' E 023°38'0 0.0
2014-Apr-14 14:32N 37°57' E 023°38'0 0.0
2014-Apr-14 13:33N 37°57' E 023°38'0 0.0
2014-Apr-14 10:32N 37°57' E 023°38'0 0.0
2014-Apr-14 09:33N 37°57' E 023°38'0 0.0
2014-Apr-14 08:33N 37°57' E 023°38'0 0.1
2014-Apr-14 07:34N 37°57' E 023°38'1313.3
2014-Apr-14 06:33N 37°44' E 023°43'11514.4
2014-Apr-13 22:33N 36°23' E 025°26'8 8.0
2014-Apr-13 21:33N 36°19' E 025°34'7 7.3
2014-Apr-13 20:33N 36°20' E 025°43'1717.3
2014-Apr-13 19:33N 36°04' E 025°35'1717.4
2014-Apr-13 18:33N 35°48' E 025°28'1717.2
2014-Apr-13 17:33N 35°32' E 025°19'12 5.8
2014-Apr-13 15:33N 35°22' E 025°13'  

Dump ship's entire track history

sailing weather and tide predictions

Prevelis — SYDL — position and weather